createdAt,value
2022-12-04T00:01:13.996Z,2.20
2022-12-04T00:03:41.189Z,2.10
2022-12-04T00:06:17.047Z,2.10
2022-12-04T00:08:44.713Z,2.30
2022-12-04T00:11:13.674Z,2.30
2022-12-04T00:13:42.659Z,2.20
2022-12-04T00:16:12.680Z,2.10
2022-12-04T00:18:40.056Z,2.00
2022-12-04T00:21:08.924Z,2.10
2022-12-04T00:23:37.723Z,2.20
2022-12-04T00:26:09.475Z,2.20
2022-12-04T00:28:36.839Z,2.20
2022-12-04T00:31:09.574Z,2.20
2022-12-04T00:33:37.126Z,2.10
2022-12-04T00:36:07.164Z,2.20
2022-12-04T00:38:34.614Z,2.20
2022-12-04T00:41:01.477Z,2.10
2022-12-04T00:43:29.197Z,2.00
2022-12-04T00:45:56.009Z,2.00
2022-12-04T00:48:23.291Z,2.00
2022-12-04T00:50:50.402Z,2.10
2022-12-04T00:53:17.305Z,2.10
2022-12-04T00:55:44.586Z,2.00
2022-12-04T00:58:11.977Z,1.80
2022-12-04T01:00:41.353Z,1.90
2022-12-04T01:03:08.968Z,1.80
2022-12-04T01:05:45.317Z,1.80
2022-12-04T01:08:12.956Z,1.90
2022-12-04T01:10:42.042Z,2.00
2022-12-04T01:13:09.461Z,1.90
2022-12-04T01:15:41.127Z,1.80
2022-12-04T01:18:07.991Z,1.80
2022-12-04T01:20:34.765Z,1.70
2022-12-04T01:23:01.525Z,1.80
2022-12-04T01:25:28.498Z,1.70
2022-12-04T01:27:55.283Z,1.80
2022-12-04T01:30:22.456Z,1.80
2022-12-04T01:32:49.251Z,1.90
2022-12-04T01:35:16.131Z,1.80
2022-12-04T01:37:42.853Z,1.70
2022-12-04T01:40:14.969Z,1.70
2022-12-04T01:42:41.735Z,1.70
2022-12-04T01:45:47.813Z,1.70
2022-12-04T01:48:36.260Z,1.60
2022-12-04T01:51:11.786Z,1.70
2022-12-04T01:53:41.260Z,1.70
2022-12-04T01:56:08.572Z,1.80
2022-12-04T01:58:40.643Z,1.90
2022-12-04T02:01:09.112Z,1.90
2022-12-04T02:03:37.725Z,1.80
2022-12-04T02:06:05.611Z,1.90
2022-12-04T02:08:33.365Z,2.00
2022-12-04T02:11:09.176Z,2.00
2022-12-04T02:13:54.375Z,2.00
2022-12-04T02:16:37.670Z,1.90
2022-12-04T02:19:13.086Z,1.90
2022-12-04T02:21:43.893Z,1.90
2022-12-04T02:24:22.371Z,1.90
2022-12-04T02:27:11.052Z,1.90
2022-12-04T02:29:52.202Z,1.90
2022-12-04T02:32:27.260Z,1.90
2022-12-04T02:35:11.615Z,1.70
2022-12-04T02:37:44.020Z,1.90
2022-12-04T02:40:37.098Z,2.00
2022-12-04T02:43:37.152Z,2.00
2022-12-04T02:46:11.328Z,1.90
2022-12-04T02:48:41.543Z,1.90
2022-12-04T02:51:13.343Z,1.80
2022-12-04T02:53:56.836Z,1.80
2022-12-04T02:56:26.683Z,1.90
2022-12-04T02:59:01.174Z,1.90
2022-12-04T03:01:34.275Z,2.00
2022-12-04T03:04:32.726Z,1.90
2022-12-04T03:07:17.785Z,1.90
2022-12-04T03:10:01.195Z,1.90
2022-12-04T03:12:36.730Z,2.00
2022-12-04T03:15:19.146Z,2.00
2022-12-04T03:17:56.122Z,1.90
2022-12-04T03:20:25.098Z,1.80
2022-12-04T03:23:18.570Z,1.90
2022-12-04T03:26:15.633Z,1.80
2022-12-04T03:29:00.592Z,1.80
2022-12-04T03:31:48.660Z,1.80
2022-12-04T03:34:24.467Z,1.90
2022-12-04T03:36:59.513Z,1.90
2022-12-04T03:39:46.047Z,1.90
2022-12-04T03:42:33.622Z,1.90
2022-12-04T03:45:11.515Z,2.00
2022-12-04T03:48:02.066Z,2.00
2022-12-04T03:51:07.335Z,2.10
2022-12-04T03:53:39.447Z,2.10
2022-12-04T03:56:20.443Z,2.10
2022-12-04T03:58:52.566Z,2.10
2022-12-04T04:01:25.272Z,2.10
2022-12-04T04:03:55.260Z,2.10
2022-12-04T04:06:37.018Z,2.20
2022-12-04T04:09:10.798Z,2.20
2022-12-04T04:12:00.585Z,2.20
2022-12-04T04:14:58.573Z,2.10
2022-12-04T04:17:48.764Z,2.10
2022-12-04T04:20:37.484Z,2.30
2022-12-04T04:23:26.765Z,2.20
2022-12-04T04:25:55.106Z,2.10
2022-12-04T04:28:28.211Z,2.10
2022-12-04T04:31:02.797Z,2.10
2022-12-04T04:33:31.352Z,2.30
2022-12-04T04:36:25.608Z,2.30
2022-12-04T04:39:03.681Z,2.40
2022-12-04T04:41:54.227Z,2.40
2022-12-04T04:44:33.314Z,2.30
2022-12-04T04:47:04.413Z,2.40
2022-12-04T04:49:34.394Z,2.40
2022-12-04T04:52:01.530Z,2.40
2022-12-04T04:54:31.041Z,2.30
2022-12-04T04:56:57.865Z,2.40
2022-12-04T04:59:24.592Z,2.40
2022-12-04T05:01:51.544Z,2.50
2022-12-04T05:04:18.321Z,2.50
2022-12-04T05:06:45.119Z,2.40
2022-12-04T05:09:11.898Z,2.30
2022-12-04T05:11:38.611Z,2.30
2022-12-04T05:14:06.213Z,2.20
2022-12-04T05:16:33.269Z,2.20
2022-12-04T05:19:18.761Z,2.10
2022-12-04T05:21:45.504Z,2.10
2022-12-04T05:24:12.256Z,2.20
2022-12-04T05:26:38.985Z,2.20
2022-12-04T05:29:05.778Z,2.30
2022-12-04T05:31:32.726Z,2.20
2022-12-04T05:33:59.503Z,2.30
2022-12-04T05:36:26.272Z,2.20
2022-12-04T05:38:52.992Z,2.20
2022-12-04T05:41:19.824Z,2.20
2022-12-04T05:43:46.598Z,2.10
2022-12-04T05:46:13.462Z,2.10
2022-12-04T05:48:40.237Z,2.00
2022-12-04T05:51:08.434Z,2.00
2022-12-04T05:53:35.328Z,1.80
2022-12-04T05:56:03.655Z,1.90
2022-12-04T05:58:30.986Z,1.90
2022-12-04T06:00:57.790Z,2.00
2022-12-04T06:03:24.616Z,1.80
2022-12-04T06:05:51.437Z,1.90
2022-12-04T06:08:18.335Z,2.10
2022-12-04T06:10:45.138Z,2.10
2022-12-04T06:13:11.966Z,2.20
2022-12-04T06:15:40.035Z,2.40
2022-12-04T06:18:07.269Z,2.40
2022-12-04T06:20:34.396Z,2.40
2022-12-04T06:23:01.330Z,2.40
2022-12-04T06:25:28.221Z,2.40
2022-12-04T06:27:55.090Z,2.30
2022-12-04T06:30:22.636Z,2.30
2022-12-04T06:32:49.438Z,2.20
2022-12-04T06:35:16.323Z,2.20
2022-12-04T06:37:43.119Z,2.20
2022-12-04T06:40:10.422Z,2.20
2022-12-04T06:42:37.137Z,2.20
2022-12-04T06:45:04.284Z,2.30
2022-12-04T06:47:31.052Z,2.30
2022-12-04T06:49:58.230Z,2.40
2022-12-04T06:52:25.161Z,2.40
2022-12-04T06:54:51.935Z,2.40
2022-12-04T06:57:18.648Z,2.40
2022-12-04T06:59:45.637Z,2.40
2022-12-04T07:02:12.500Z,2.40
2022-12-04T07:04:39.354Z,2.30
2022-12-04T07:07:08.927Z,2.30
2022-12-04T07:09:36.012Z,2.40
2022-12-04T07:12:02.798Z,2.40
2022-12-04T07:14:29.622Z,2.30
2022-12-04T07:16:56.422Z,2.30
2022-12-04T07:19:23.304Z,2.30
2022-12-04T07:21:50.086Z,2.20
2022-12-04T07:24:17.840Z,2.30
2022-12-04T07:26:45.175Z,2.20
2022-12-04T07:29:12.027Z,2.20
2022-12-04T07:31:39.479Z,2.20
2022-12-04T07:34:06.282Z,2.10
2022-12-04T07:36:33.066Z,2.30
2022-12-04T07:38:59.867Z,2.30
2022-12-04T07:41:26.609Z,2.20
2022-12-04T07:43:54.562Z,2.20
2022-12-04T07:46:24.350Z,2.20
2022-12-04T07:48:51.194Z,2.20
2022-12-04T07:51:20.633Z,2.20
2022-12-04T07:53:48.157Z,2.10
2022-12-04T07:56:15.728Z,2.30
2022-12-04T07:58:43.333Z,2.30
2022-12-04T08:01:12.277Z,2.10
2022-12-04T08:03:46.814Z,2.10
2022-12-04T08:06:15.574Z,2.10
2022-12-04T08:08:42.314Z,2.20
2022-12-04T08:11:12.968Z,2.20
2022-12-04T08:13:39.805Z,2.10
2022-12-04T08:16:08.693Z,2.10
2022-12-04T08:18:35.724Z,2.00
2022-12-04T08:21:14.059Z,2.00
2022-12-04T08:23:42.969Z,2.20
2022-12-04T08:26:11.188Z,2.20
2022-12-04T08:28:38.930Z,2.10
2022-12-04T08:31:10.291Z,2.20
2022-12-04T08:33:37.144Z,2.10
2022-12-04T08:36:07.248Z,2.20
2022-12-04T08:38:34.195Z,2.10
2022-12-04T08:41:02.636Z,2.10
2022-12-04T08:43:29.703Z,2.10
2022-12-04T08:46:02.067Z,2.20
2022-12-04T08:48:29.371Z,2.20
2022-12-04T08:50:56.517Z,2.20
2022-12-04T08:53:23.796Z,2.20
2022-12-04T08:55:51.174Z,2.30
2022-12-04T08:58:19.064Z,2.20
2022-12-04T09:00:46.577Z,2.20
2022-12-04T09:03:15.894Z,2.20
2022-12-04T09:05:46.571Z,2.20
2022-12-04T09:08:15.538Z,2.20
2022-12-04T09:10:42.932Z,2.20
2022-12-04T09:13:09.863Z,2.20
2022-12-04T09:15:39.679Z,2.30
2022-12-04T09:18:07.172Z,2.40
2022-12-04T09:20:34.273Z,2.40
2022-12-04T09:23:05.252Z,2.30
2022-12-04T09:25:36.635Z,2.30
2022-12-04T09:28:04.430Z,2.40
2022-12-04T09:30:31.478Z,2.30
2022-12-04T09:32:58.313Z,2.40
2022-12-04T09:35:25.063Z,2.50
2022-12-04T09:37:51.827Z,2.50
2022-12-04T09:40:36.900Z,2.50
2022-12-04T09:43:45.839Z,2.60
2022-12-04T09:46:24.194Z,2.60
2022-12-04T09:48:52.152Z,2.60
2022-12-04T09:51:22.622Z,2.50
2022-12-04T09:53:59.678Z,2.60
2022-12-04T09:56:30.449Z,2.60
2022-12-04T09:59:11.284Z,2.70
2022-12-04T10:01:48.485Z,2.80
2022-12-04T10:04:17.197Z,2.60
2022-12-04T10:07:07.150Z,2.60
2022-12-04T10:09:48.939Z,2.40
2022-12-04T10:12:23.474Z,2.20
2022-12-04T10:15:07.623Z,2.30
2022-12-04T10:17:46.077Z,2.40
2022-12-04T10:20:15.892Z,2.40
2022-12-04T10:23:17.394Z,2.40
2022-12-04T10:25:44.249Z,2.40
2022-12-04T10:28:39.812Z,2.40
2022-12-04T10:31:12.640Z,2.40
2022-12-04T10:33:55.972Z,2.50
2022-12-04T10:36:29.275Z,2.40
2022-12-04T10:38:57.899Z,2.50
2022-12-04T10:42:06.246Z,2.50
2022-12-04T10:44:33.205Z,2.30
2022-12-04T10:47:02.124Z,2.10
2022-12-04T10:49:31.853Z,2.30
2022-12-04T10:51:58.944Z,2.40
2022-12-04T10:54:54.859Z,2.50
2022-12-04T10:57:21.718Z,2.30
2022-12-04T10:59:55.109Z,2.30
2022-12-04T11:02:32.037Z,2.30
2022-12-04T11:05:08.359Z,2.20
2022-12-04T11:07:43.625Z,2.30
2022-12-04T11:10:32.620Z,2.50
2022-12-04T11:13:06.972Z,2.70
2022-12-04T11:15:46.625Z,2.60
2022-12-04T11:18:22.807Z,2.70
2022-12-04T11:21:01.628Z,2.70
2022-12-04T11:23:41.164Z,2.60
2022-12-04T11:26:09.273Z,2.60
2022-12-04T11:28:42.511Z,2.50
2022-12-04T11:31:15.836Z,2.50
2022-12-04T11:33:51.674Z,2.50
2022-12-04T11:36:29.498Z,2.50
2022-12-04T11:39:11.680Z,2.60
2022-12-04T11:41:39.429Z,2.60
2022-12-04T11:44:07.305Z,2.70
2022-12-04T11:46:35.007Z,2.70
2022-12-04T11:49:03.605Z,2.60
2022-12-04T11:51:33.427Z,2.60
2022-12-04T11:54:03.282Z,2.70
2022-12-04T11:56:38.494Z,2.70
2022-12-04T11:59:37.227Z,2.60
2022-12-04T12:02:31.401Z,2.70
2022-12-04T12:05:16.216Z,2.60
2022-12-04T12:08:02.463Z,2.60
2022-12-04T12:10:33.951Z,2.60
2022-12-04T12:13:26.802Z,2.50
2022-12-04T12:16:18.086Z,2.50
2022-12-04T12:18:56.144Z,2.60
2022-12-04T12:21:45.662Z,2.80
2022-12-04T12:24:29.897Z,2.90
2022-12-04T12:27:27.563Z,2.90
2022-12-04T12:30:07.099Z,2.90
2022-12-04T12:32:43.059Z,2.80
2022-12-04T12:35:24.440Z,2.60
2022-12-04T12:37:53.827Z,2.60
2022-12-04T12:40:20.633Z,2.60
2022-12-04T12:43:22.481Z,2.70
2022-12-04T12:46:08.532Z,2.70
2022-12-04T12:48:59.307Z,2.80
2022-12-04T12:51:44.174Z,2.80
2022-12-04T12:54:39.105Z,2.90
2022-12-04T12:57:20.363Z,2.90
2022-12-04T12:59:53.987Z,2.90
2022-12-04T13:02:31.963Z,2.80
2022-12-04T13:05:07.551Z,2.90
2022-12-04T13:08:01.150Z,2.70
2022-12-04T13:10:30.948Z,2.80
2022-12-04T13:13:08.443Z,2.70
2022-12-04T13:15:45.106Z,2.60
2022-12-04T13:18:28.984Z,2.70
2022-12-04T13:21:02.321Z,2.80
2022-12-04T13:23:35.321Z,2.70
2022-12-04T13:26:35.720Z,2.70
2022-12-04T13:29:19.523Z,2.70
2022-12-04T13:32:05.011Z,2.60
2022-12-04T13:34:50.312Z,2.60
2022-12-04T13:37:50.400Z,2.70
2022-12-04T13:40:28.928Z,2.70
2022-12-04T13:43:14.159Z,2.50
2022-12-04T13:45:41.435Z,2.60
2022-12-04T13:48:09.916Z,2.60
2022-12-04T13:50:39.155Z,2.60
2022-12-04T13:53:06.848Z,2.50
2022-12-04T13:55:39.154Z,2.40
2022-12-04T13:58:11.831Z,2.50
2022-12-04T14:00:44.159Z,2.40
2022-12-04T14:03:28.369Z,2.50
2022-12-04T14:05:55.513Z,2.40
2022-12-04T14:08:28.311Z,2.40
2022-12-04T14:11:00.737Z,2.50
2022-12-04T14:13:49.921Z,2.50
2022-12-04T14:16:19.824Z,2.50
2022-12-04T14:18:58.486Z,2.60
2022-12-04T14:21:26.204Z,2.60
2022-12-04T14:23:53.697Z,2.60
2022-12-04T14:27:09.659Z,2.50
2022-12-04T14:29:49.542Z,2.40
2022-12-04T14:32:32.713Z,2.50
2022-12-04T14:35:00.182Z,2.50
2022-12-04T14:37:36.485Z,2.40
2022-12-04T14:40:07.592Z,2.50
2022-12-04T14:42:38.454Z,2.60
2022-12-04T14:45:22.118Z,2.60
2022-12-04T14:47:58.111Z,2.60
2022-12-04T14:50:39.943Z,2.60
2022-12-04T14:53:14.814Z,2.50
2022-12-04T14:56:07.814Z,2.50
2022-12-04T14:58:38.469Z,2.40
2022-12-04T15:01:18.163Z,2.20
2022-12-04T15:03:47.934Z,2.10
2022-12-04T15:06:28.503Z,2.20
2022-12-04T15:09:16.786Z,2.30
2022-12-04T15:12:11.039Z,2.40
2022-12-04T15:14:46.251Z,2.30
2022-12-04T15:17:15.663Z,2.30
2022-12-04T15:19:43.126Z,2.20
2022-12-04T15:22:28.303Z,2.10
2022-12-04T15:24:55.995Z,2.20
2022-12-04T15:27:30.591Z,2.30
2022-12-04T15:30:01.020Z,2.40
2022-12-04T15:32:30.973Z,2.40
2022-12-04T15:35:02.946Z,2.30
2022-12-04T15:37:32.089Z,2.30
2022-12-04T15:39:59.997Z,2.30
2022-12-04T15:42:29.837Z,2.40
2022-12-04T15:45:19.217Z,2.40
2022-12-04T15:47:45.916Z,2.40
2022-12-04T15:50:15.368Z,2.30
2022-12-04T15:53:00.110Z,2.30
2022-12-04T15:55:29.650Z,2.40
2022-12-04T15:58:06.527Z,2.50
2022-12-04T16:00:39.261Z,2.40
2022-12-04T16:03:23.101Z,2.40
2022-12-04T16:05:49.948Z,2.40
2022-12-04T16:08:31.859Z,2.40
2022-12-04T16:11:20.326Z,2.40
2022-12-04T16:13:49.274Z,2.40
2022-12-04T16:16:20.527Z,2.50
2022-12-04T16:18:47.387Z,2.30
2022-12-04T16:21:17.681Z,2.40
2022-12-04T16:23:45.287Z,2.40
2022-12-04T16:26:13.768Z,2.40
2022-12-04T16:28:40.506Z,2.40
2022-12-04T16:31:09.019Z,2.30
2022-12-04T16:33:35.820Z,2.40
2022-12-04T16:36:02.534Z,2.40
2022-12-04T16:38:29.289Z,2.50
2022-12-04T16:40:56.248Z,2.50
2022-12-04T16:43:23.123Z,2.40
2022-12-04T16:45:53.925Z,2.30
2022-12-04T16:48:20.883Z,2.30
2022-12-04T16:50:47.784Z,2.30
2022-12-04T16:53:20.466Z,2.20
2022-12-04T16:55:51.576Z,2.10
2022-12-04T16:58:20.031Z,2.30
2022-12-04T17:00:54.100Z,2.30
2022-12-04T17:03:38.762Z,2.30
2022-12-04T17:06:05.678Z,2.30
2022-12-04T17:08:33.085Z,2.30
2022-12-04T17:10:59.848Z,2.30
2022-12-04T17:13:26.785Z,2.20
2022-12-04T17:15:53.542Z,2.20
2022-12-04T17:18:21.456Z,2.40
2022-12-04T17:20:49.136Z,2.50
2022-12-04T17:23:16.173Z,2.40
2022-12-04T17:25:42.961Z,2.30
2022-12-04T17:28:09.779Z,2.20
2022-12-04T17:30:36.755Z,2.30
2022-12-04T17:33:04.880Z,2.20
2022-12-04T17:35:31.749Z,2.30
2022-12-04T17:38:05.332Z,2.20
2022-12-04T17:40:33.264Z,2.20
2022-12-04T17:43:00.131Z,2.30
2022-12-04T17:45:26.894Z,2.20
2022-12-04T17:47:53.635Z,2.20
2022-12-04T17:50:20.484Z,2.30
2022-12-04T17:52:47.215Z,2.30
2022-12-04T17:55:13.979Z,2.30
2022-12-04T17:57:40.723Z,2.40
2022-12-04T18:00:08.573Z,2.30
2022-12-04T18:02:36.390Z,2.30
2022-12-04T18:05:03.300Z,2.20
2022-12-04T18:07:31.430Z,2.10
2022-12-04T18:09:58.568Z,2.20
2022-12-04T18:12:25.549Z,2.20
2022-12-04T18:14:53.374Z,2.20
2022-12-04T18:17:21.008Z,2.30
2022-12-04T18:19:47.814Z,2.30
2022-12-04T18:22:14.679Z,2.40
2022-12-04T18:24:41.556Z,2.40
2022-12-04T18:27:08.762Z,2.30
2022-12-04T18:29:35.552Z,2.40
2022-12-04T18:32:02.510Z,2.50
2022-12-04T18:34:29.340Z,2.60
2022-12-04T18:36:56.126Z,2.60
2022-12-04T18:39:25.062Z,2.50
2022-12-04T18:41:55.932Z,2.40
2022-12-04T18:44:23.183Z,2.40
2022-12-04T18:46:50.084Z,2.40
2022-12-04T18:49:16.792Z,2.30
2022-12-04T18:51:49.124Z,2.30
2022-12-04T18:54:21.062Z,2.40
2022-12-04T18:56:48.082Z,2.50
2022-12-04T18:59:17.717Z,2.50
2022-12-04T19:01:44.919Z,2.60
2022-12-04T19:04:13.703Z,2.50
2022-12-04T19:06:46.246Z,2.50
2022-12-04T19:09:40.868Z,2.60
2022-12-04T19:12:11.605Z,2.60
2022-12-04T19:14:39.687Z,2.60
2022-12-04T19:17:06.552Z,2.60
2022-12-04T19:19:33.425Z,2.60
2022-12-04T19:22:01.173Z,2.50
2022-12-04T19:24:27.957Z,2.50
2022-12-04T19:26:54.727Z,2.50
2022-12-04T19:29:21.514Z,2.40
2022-12-04T19:31:48.373Z,2.40
2022-12-04T19:34:15.277Z,2.50
2022-12-04T19:36:42.684Z,2.50
2022-12-04T19:39:10.182Z,2.70
2022-12-04T19:41:41.358Z,2.80
2022-12-04T19:44:46.303Z,2.80
2022-12-04T19:46:56.529Z,2.60
2022-12-04T19:49:23.354Z,2.50
2022-12-04T19:51:50.399Z,2.30
2022-12-04T19:54:17.535Z,2.40
2022-12-04T19:56:49.082Z,2.50
2022-12-04T19:59:15.855Z,2.50
2022-12-04T20:01:42.650Z,2.50
2022-12-04T20:04:10.738Z,2.60
2022-12-04T20:06:43.381Z,2.70
2022-12-04T20:09:13.514Z,2.50
2022-12-04T20:11:41.054Z,2.50
2022-12-04T20:14:08.936Z,2.60
2022-12-04T20:16:37.618Z,2.70
2022-12-04T20:19:06.467Z,2.60
2022-12-04T20:21:33.712Z,2.70
2022-12-04T20:24:04.014Z,2.60
2022-12-04T20:26:34.982Z,2.70
2022-12-04T20:29:02.238Z,2.60
2022-12-04T20:31:33.125Z,2.60
2022-12-04T20:34:01.708Z,2.40
2022-12-04T20:36:30.678Z,2.30
2022-12-04T20:38:59.176Z,2.40
2022-12-04T20:41:28.304Z,2.50
2022-12-04T20:43:55.983Z,2.50
2022-12-04T20:46:28.507Z,2.50
2022-12-04T20:48:55.415Z,2.40
2022-12-04T20:51:27.307Z,2.50
2022-12-04T20:53:55.381Z,2.60
2022-12-04T20:56:23.375Z,2.70
2022-12-04T20:58:50.166Z,2.80
2022-12-04T21:01:19.212Z,2.80
2022-12-04T21:03:47.047Z,2.70
2022-12-04T21:06:20.096Z,2.70
2022-12-04T21:08:54.314Z,2.70
2022-12-04T21:11:26.359Z,2.70
2022-12-04T21:14:12.952Z,2.60
2022-12-04T21:16:40.778Z,2.60
2022-12-04T21:19:09.345Z,2.60
2022-12-04T21:21:36.718Z,2.70
2022-12-04T21:24:04.969Z,2.80
2022-12-04T21:26:31.814Z,2.80
2022-12-04T21:28:58.902Z,2.80
2022-12-04T21:31:28.136Z,2.80
2022-12-04T21:33:58.159Z,2.80
2022-12-04T21:36:26.754Z,2.80
2022-12-04T21:38:53.872Z,2.70
2022-12-04T21:41:39.603Z,2.70
2022-12-04T21:44:11.890Z,2.80
2022-12-04T21:46:39.446Z,2.80
2022-12-04T21:49:07.063Z,2.90
2022-12-04T21:51:57.151Z,3.00
2022-12-04T21:54:21.264Z,3.00
2022-12-04T21:56:48.112Z,2.90
2022-12-04T21:59:15.025Z,2.90
2022-12-04T22:01:42.230Z,2.90
2022-12-04T22:04:09.032Z,2.80
2022-12-04T22:06:37.616Z,2.80
2022-12-04T22:09:07.366Z,3.00
2022-12-04T22:11:34.195Z,3.10
2022-12-04T22:14:01.167Z,2.90
2022-12-04T22:16:30.710Z,2.80
2022-12-04T22:18:59.081Z,2.80
2022-12-04T22:21:26.952Z,2.70
2022-12-04T22:24:00.690Z,2.80
2022-12-04T22:26:28.771Z,2.90
2022-12-04T22:28:56.012Z,2.80
2022-12-04T22:31:25.922Z,2.90
2022-12-04T22:33:54.877Z,2.90
2022-12-04T22:36:32.752Z,2.90
2022-12-04T22:39:09.410Z,2.80
2022-12-04T22:41:37.053Z,2.70
2022-12-04T22:44:04.189Z,2.80
2022-12-04T22:46:31.030Z,2.70
2022-12-04T22:48:59.162Z,2.60
2022-12-04T22:51:27.192Z,2.50
2022-12-04T22:53:56.506Z,2.70
2022-12-04T22:56:28.194Z,2.80
2022-12-04T22:58:55.775Z,2.70
2022-12-04T23:01:42.809Z,2.80
2022-12-04T23:04:10.244Z,2.80
2022-12-04T23:06:37.315Z,2.60
2022-12-04T23:09:11.515Z,2.70
2022-12-04T23:11:38.340Z,2.80
2022-12-04T23:14:07.326Z,2.90
2022-12-04T23:16:36.392Z,3.10
2022-12-04T23:19:03.546Z,3.00
2022-12-04T23:21:30.683Z,2.80
2022-12-04T23:23:57.685Z,2.80
2022-12-04T23:26:31.297Z,2.80
2022-12-04T23:28:58.663Z,2.80
2022-12-04T23:31:26.014Z,2.80
2022-12-04T23:33:52.793Z,2.90
2022-12-04T23:36:20.093Z,2.90
2022-12-04T23:38:47.367Z,2.80
2022-12-04T23:41:16.724Z,2.80
2022-12-04T23:43:44.234Z,2.80
2022-12-04T23:46:13.077Z,2.90
2022-12-04T23:48:41.198Z,2.90
2022-12-04T23:51:09.692Z,2.90
2022-12-04T23:53:36.911Z,3.00
2022-12-04T23:56:09.519Z,3.00
2022-12-04T23:58:37.173Z,3.00
